sensor_id;sensor_type;location;lat;lon;timestamp;P1;durP1;ratioP1;P2;durP2;ratioP2
75912;SDS011;64592;52.168;21.040;2022-12-07T00:02:15;31.73;;;15.93;;
75912;SDS011;64592;52.168;21.040;2022-12-07T00:07:18;36.60;;;17.58;;
75912;SDS011;64592;52.168;21.040;2022-12-07T00:12:19;35.10;;;17.83;;
75912;SDS011;64592;52.168;21.040;2022-12-07T00:17:21;33.53;;;18.05;;
75912;SDS011;64592;52.168;21.040;2022-12-07T00:22:24;42.00;;;18.42;;
75912;SDS011;64592;52.168;21.040;2022-12-07T00:27:26;39.08;;;16.60;;
75912;SDS011;64592;52.168;21.040;2022-12-07T00:32:28;42.00;;;18.48;;
75912;SDS011;64592;52.168;21.040;2022-12-07T00:37:31;33.70;;;17.85;;
75912;SDS011;64592;52.168;21.040;2022-12-07T00:42:33;31.30;;;16.27;;
75912;SDS011;64592;52.168;21.040;2022-12-07T00:47:34;36.85;;;17.83;;
75912;SDS011;64592;52.168;21.040;2022-12-07T00:52:37;39.15;;;20.63;;
75912;SDS011;64592;52.168;21.040;2022-12-07T00:57:39;40.22;;;19.83;;
75912;SDS011;64592;52.168;21.040;2022-12-07T01:02:40;37.83;;;19.05;;
75912;SDS011;64592;52.168;21.040;2022-12-07T01:07:43;50.40;;;22.75;;
75912;SDS011;64592;52.168;21.040;2022-12-07T01:12:46;44.17;;;19.75;;
75912;SDS011;64592;52.168;21.040;2022-12-07T01:17:48;35.72;;;20.50;;
75912;SDS011;64592;52.168;21.040;2022-12-07T01:22:51;37.58;;;18.30;;
75912;SDS011;64592;52.168;21.040;2022-12-07T01:27:52;49.08;;;19.45;;
75912;SDS011;64592;52.168;21.040;2022-12-07T01:32:54;34.42;;;17.73;;
75912;SDS011;64592;52.168;21.040;2022-12-07T01:37:57;40.53;;;18.20;;
75912;SDS011;64592;52.168;21.040;2022-12-07T01:42:59;35.30;;;14.63;;
75912;SDS011;64592;52.168;21.040;2022-12-07T01:48:00;28.38;;;14.10;;
75912;SDS011;64592;52.168;21.040;2022-12-07T01:53:04;26.23;;;12.75;;
75912;SDS011;64592;52.168;21.040;2022-12-07T01:58:09;27.33;;;12.20;;
75912;SDS011;64592;52.168;21.040;2022-12-07T02:03:14;20.55;;;10.65;;
75912;SDS011;64592;52.168;21.040;2022-12-07T02:08:22;20.38;;;10.52;;
75912;SDS011;64592;52.168;21.040;2022-12-07T02:13:25;18.48;;;9.80;;
75912;SDS011;64592;52.168;21.040;2022-12-07T02:18:32;19.63;;;10.80;;
75912;SDS011;64592;52.168;21.040;2022-12-07T02:24:06;14.15;;;7.47;;
75912;SDS011;64592;52.168;21.040;2022-12-07T02:29:19;20.63;;;9.80;;
75912;SDS011;64592;52.168;21.040;2022-12-07T02:34:26;15.05;;;8.57;;
75912;SDS011;64592;52.168;21.040;2022-12-07T02:39:34;16.90;;;9.90;;
75912;SDS011;64592;52.168;21.040;2022-12-07T02:44:43;19.27;;;10.50;;
75912;SDS011;64592;52.168;21.040;2022-12-07T02:49:46;16.85;;;9.38;;
75912;SDS011;64592;52.168;21.040;2022-12-07T02:54:48;19.85;;;10.63;;
75912;SDS011;64592;52.168;21.040;2022-12-07T02:59:55;19.08;;;9.43;;
75912;SDS011;64592;52.168;21.040;2022-12-07T03:05:07;21.10;;;9.50;;
75912;SDS011;64592;52.168;21.040;2022-12-07T03:10:22;15.07;;;7.78;;
75912;SDS011;64592;52.168;21.040;2022-12-07T03:15:31;15.15;;;7.97;;
75912;SDS011;64592;52.168;21.040;2022-12-07T03:20:35;6.18;;;3.65;;
75912;SDS011;64592;52.168;21.040;2022-12-07T03:25:38;12.25;;;5.88;;
75912;SDS011;64592;52.168;21.040;2022-12-07T03:30:44;8.25;;;5.63;;
75912;SDS011;64592;52.168;21.040;2022-12-07T03:35:51;11.07;;;6.28;;
75912;SDS011;64592;52.168;21.040;2022-12-07T03:41:00;6.07;;;3.40;;
75912;SDS011;64592;52.168;21.040;2022-12-07T03:46:09;8.77;;;4.53;;
75912;SDS011;64592;52.168;21.040;2022-12-07T03:51:20;10.98;;;4.43;;
75912;SDS011;64592;52.168;21.040;2022-12-07T03:56:27;9.00;;;5.20;;
75912;SDS011;64592;52.168;21.040;2022-12-07T04:01:32;6.93;;;4.60;;
75912;SDS011;64592;52.168;21.040;2022-12-07T04:06:34;8.40;;;4.20;;
75912;SDS011;64592;52.168;21.040;2022-12-07T04:11:36;9.18;;;4.10;;
75912;SDS011;64592;52.168;21.040;2022-12-07T04:16:39;9.68;;;4.30;;
75912;SDS011;64592;52.168;21.040;2022-12-07T04:21:40;7.32;;;3.97;;
75912;SDS011;64592;52.168;21.040;2022-12-07T04:26:42;6.68;;;3.92;;
75912;SDS011;64592;52.168;21.040;2022-12-07T04:31:46;8.27;;;5.22;;
75912;SDS011;64592;52.168;21.040;2022-12-07T04:36:48;5.22;;;3.45;;
75912;SDS011;64592;52.168;21.040;2022-12-07T04:41:50;8.48;;;4.78;;
75912;SDS011;64592;52.168;21.040;2022-12-07T04:46:54;8.95;;;4.05;;
75912;SDS011;64592;52.168;21.040;2022-12-07T04:51:57;7.90;;;4.53;;
75912;SDS011;64592;52.168;21.040;2022-12-07T04:56:58;6.63;;;3.95;;
75912;SDS011;64592;52.168;21.040;2022-12-07T05:02:01;7.57;;;4.00;;
75912;SDS011;64592;52.168;21.040;2022-12-07T05:07:03;7.40;;;5.15;;
75912;SDS011;64592;52.168;21.040;2022-12-07T05:12:04;9.57;;;5.13;;
75912;SDS011;64592;52.168;21.040;2022-12-07T05:17:07;7.90;;;4.30;;
75912;SDS011;64592;52.168;21.040;2022-12-07T05:22:09;7.30;;;4.28;;
75912;SDS011;64592;52.168;21.040;2022-12-07T05:27:11;11.43;;;6.10;;
75912;SDS011;64592;52.168;21.040;2022-12-07T05:32:14;11.50;;;6.65;;
75912;SDS011;64592;52.168;21.040;2022-12-07T05:37:15;11.32;;;7.03;;
75912;SDS011;64592;52.168;21.040;2022-12-07T05:42:17;9.07;;;5.57;;
75912;SDS011;64592;52.168;21.040;2022-12-07T05:47:20;8.88;;;5.55;;
75912;SDS011;64592;52.168;21.040;2022-12-07T05:52:22;10.75;;;6.80;;
75912;SDS011;64592;52.168;21.040;2022-12-07T05:57:24;12.57;;;6.18;;
75912;SDS011;64592;52.168;21.040;2022-12-07T06:02:27;6.68;;;3.80;;
75912;SDS011;64592;52.168;21.040;2022-12-07T06:07:28;11.35;;;5.65;;
75912;SDS011;64592;52.168;21.040;2022-12-07T06:12:30;14.65;;;5.65;;
75912;SDS011;64592;52.168;21.040;2022-12-07T06:17:36;12.23;;;6.10;;
75912;SDS011;64592;52.168;21.040;2022-12-07T06:22:38;14.88;;;6.88;;
75912;SDS011;64592;52.168;21.040;2022-12-07T06:27:39;16.27;;;6.47;;
75912;SDS011;64592;52.168;21.040;2022-12-07T06:32:42;7.68;;;4.88;;
75912;SDS011;64592;52.168;21.040;2022-12-07T06:37:44;11.88;;;5.70;;
75912;SDS011;64592;52.168;21.040;2022-12-07T06:42:45;12.02;;;5.53;;
75912;SDS011;64592;52.168;21.040;2022-12-07T06:47:48;13.13;;;6.18;;
75912;SDS011;64592;52.168;21.040;2022-12-07T06:52:50;11.05;;;6.03;;
75912;SDS011;64592;52.168;21.040;2022-12-07T06:57:52;9.82;;;5.85;;
75912;SDS011;64592;52.168;21.040;2022-12-07T07:02:55;10.15;;;5.20;;
75912;SDS011;64592;52.168;21.040;2022-12-07T07:07:57;12.27;;;5.90;;
75912;SDS011;64592;52.168;21.040;2022-12-07T07:12:58;10.40;;;6.03;;
75912;SDS011;64592;52.168;21.040;2022-12-07T07:18:01;8.48;;;4.72;;
75912;SDS011;64592;52.168;21.040;2022-12-07T07:23:03;11.27;;;5.57;;
75912;SDS011;64592;52.168;21.040;2022-12-07T07:28:05;11.68;;;5.82;;
75912;SDS011;64592;52.168;21.040;2022-12-07T07:33:08;12.88;;;6.85;;
75912;SDS011;64592;52.168;21.040;2022-12-07T07:38:11;10.35;;;4.80;;
75912;SDS011;64592;52.168;21.040;2022-12-07T07:43:12;12.20;;;5.85;;
75912;SDS011;64592;52.168;21.040;2022-12-07T07:48:15;10.48;;;4.78;;
75912;SDS011;64592;52.168;21.040;2022-12-07T07:53:17;8.50;;;4.80;;
75912;SDS011;64592;52.168;21.040;2022-12-07T07:58:18;11.18;;;5.28;;
75912;SDS011;64592;52.168;21.040;2022-12-07T08:03:21;8.60;;;4.90;;
75912;SDS011;64592;52.168;21.040;2022-12-07T08:08:23;12.35;;;4.50;;
75912;SDS011;64592;52.168;21.040;2022-12-07T08:13:25;12.13;;;4.75;;
75912;SDS011;64592;52.168;21.040;2022-12-07T08:18:28;9.02;;;4.85;;
75912;SDS011;64592;52.168;21.040;2022-12-07T08:23:29;8.43;;;3.95;;
75912;SDS011;64592;52.168;21.040;2022-12-07T08:28:31;10.30;;;5.45;;
75912;SDS011;64592;52.168;21.040;2022-12-07T08:33:35;6.97;;;4.32;;
75912;SDS011;64592;52.168;21.040;2022-12-07T08:38:37;17.25;;;6.03;;
75912;SDS011;64592;52.168;21.040;2022-12-07T08:43:40;13.20;;;7.38;;
75912;SDS011;64592;52.168;21.040;2022-12-07T08:48:44;15.63;;;6.88;;
75912;SDS011;64592;52.168;21.040;2022-12-07T08:53:48;13.57;;;7.15;;
75912;SDS011;64592;52.168;21.040;2022-12-07T08:58:51;18.23;;;8.73;;
75912;SDS011;64592;52.168;21.040;2022-12-07T09:03:54;17.02;;;9.20;;
75912;SDS011;64592;52.168;21.040;2022-12-07T09:08:57;14.60;;;7.43;;
75912;SDS011;64592;52.168;21.040;2022-12-07T09:14:01;17.60;;;7.43;;
75912;SDS011;64592;52.168;21.040;2022-12-07T09:19:04;21.45;;;9.55;;
75912;SDS011;64592;52.168;21.040;2022-12-07T09:24:06;17.23;;;8.23;;
75912;SDS011;64592;52.168;21.040;2022-12-07T09:29:09;24.60;;;11.75;;
75912;SDS011;64592;52.168;21.040;2022-12-07T09:34:12;14.75;;;7.05;;
75912;SDS011;64592;52.168;21.040;2022-12-07T09:39:13;13.52;;;6.30;;
75912;SDS011;64592;52.168;21.040;2022-12-07T09:44:17;17.65;;;8.98;;
75912;SDS011;64592;52.168;21.040;2022-12-07T09:49:25;18.33;;;8.40;;
75912;SDS011;64592;52.168;21.040;2022-12-07T09:54:30;9.65;;;5.38;;
75912;SDS011;64592;52.168;21.040;2022-12-07T09:59:35;22.05;;;8.70;;
75912;SDS011;64592;52.168;21.040;2022-12-07T10:04:38;16.33;;;7.50;;
75912;SDS011;64592;52.168;21.040;2022-12-07T10:09:39;19.10;;;7.80;;
75912;SDS011;64592;52.168;21.040;2022-12-07T10:14:52;22.30;;;9.50;;
75912;SDS011;64592;52.168;21.040;2022-12-07T10:20:11;21.08;;;9.60;;
75912;SDS011;64592;52.168;21.040;2022-12-07T10:25:20;22.60;;;8.70;;
75912;SDS011;64592;52.168;21.040;2022-12-07T10:30:23;19.48;;;7.03;;
75912;SDS011;64592;52.168;21.040;2022-12-07T10:35:26;16.20;;;7.40;;
75912;SDS011;64592;52.168;21.040;2022-12-07T10:40:31;18.33;;;9.13;;
75912;SDS011;64592;52.168;21.040;2022-12-07T10:45:34;19.50;;;8.98;;
75912;SDS011;64592;52.168;21.040;2022-12-07T10:56:18;22.33;;;7.72;;
75912;SDS011;64592;52.168;21.040;2022-12-07T11:01:38;14.77;;;7.32;;
75912;SDS011;64592;52.168;21.040;2022-12-07T11:06:47;18.73;;;8.43;;
75912;SDS011;64592;52.168;21.040;2022-12-07T11:11:57;18.15;;;7.15;;
75912;SDS011;64592;52.168;21.040;2022-12-07T11:17:05;12.35;;;6.72;;
75912;SDS011;64592;52.168;21.040;2022-12-07T11:22:13;11.43;;;5.05;;
75912;SDS011;64592;52.168;21.040;2022-12-07T11:27:22;16.20;;;6.30;;
75912;SDS011;64592;52.168;21.040;2022-12-07T11:32:38;15.43;;;7.80;;
75912;SDS011;64592;52.168;21.040;2022-12-07T11:37:57;13.40;;;7.38;;
75912;SDS011;64592;52.168;21.040;2022-12-07T11:43:04;10.00;;;5.28;;
75912;SDS011;64592;52.168;21.040;2022-12-07T11:48:15;15.13;;;8.50;;
75912;SDS011;64592;52.168;21.040;2022-12-07T11:53:24;8.95;;;5.35;;
75912;SDS011;64592;52.168;21.040;2022-12-07T11:58:35;13.63;;;6.90;;
75912;SDS011;64592;52.168;21.040;2022-12-07T12:03:45;13.32;;;6.40;;
75912;SDS011;64592;52.168;21.040;2022-12-07T12:08:50;14.35;;;7.30;;
75912;SDS011;64592;52.168;21.040;2022-12-07T12:14:03;15.65;;;6.53;;
75912;SDS011;64592;52.168;21.040;2022-12-07T12:19:23;12.65;;;6.88;;
75912;SDS011;64592;52.168;21.040;2022-12-07T12:24:32;12.38;;;6.80;;
75912;SDS011;64592;52.168;21.040;2022-12-07T12:29:37;8.25;;;4.75;;
75912;SDS011;64592;52.168;21.040;2022-12-07T12:35:00;13.50;;;6.35;;
75912;SDS011;64592;52.168;21.040;2022-12-07T12:45:43;8.70;;;4.68;;
75912;SDS011;64592;52.168;21.040;2022-12-07T12:50:45;13.52;;;7.10;;
75912;SDS011;64592;52.168;21.040;2022-12-07T13:01:38;11.15;;;6.32;;
75912;SDS011;64592;52.168;21.040;2022-12-07T13:06:42;12.32;;;5.70;;
75912;SDS011;64592;52.168;21.040;2022-12-07T13:11:45;12.57;;;5.28;;
75912;SDS011;64592;52.168;21.040;2022-12-07T13:16:47;9.82;;;4.93;;
75912;SDS011;64592;52.168;21.040;2022-12-07T13:21:49;8.15;;;4.70;;
75912;SDS011;64592;52.168;21.040;2022-12-07T13:26:52;10.13;;;5.85;;
75912;SDS011;64592;52.168;21.040;2022-12-07T13:31:58;11.63;;;6.68;;
75912;SDS011;64592;52.168;21.040;2022-12-07T13:37:00;12.60;;;6.93;;
75912;SDS011;64592;52.168;21.040;2022-12-07T13:42:23;12.82;;;5.82;;
75912;SDS011;64592;52.168;21.040;2022-12-07T13:47:28;10.50;;;5.95;;
75912;SDS011;64592;52.168;21.040;2022-12-07T13:52:42;11.43;;;5.35;;
75912;SDS011;64592;52.168;21.040;2022-12-07T13:57:47;11.82;;;6.00;;
75912;SDS011;64592;52.168;21.040;2022-12-07T14:02:55;12.70;;;6.50;;
75912;SDS011;64592;52.168;21.040;2022-12-07T14:08:00;9.82;;;6.22;;
75912;SDS011;64592;52.168;21.040;2022-12-07T14:13:22;10.15;;;5.50;;
75912;SDS011;64592;52.168;21.040;2022-12-07T14:18:34;11.98;;;6.68;;
75912;SDS011;64592;52.168;21.040;2022-12-07T14:23:38;8.85;;;4.80;;
75912;SDS011;64592;52.168;21.040;2022-12-07T14:28:43;7.53;;;4.43;;
75912;SDS011;64592;52.168;21.040;2022-12-07T14:33:45;12.77;;;6.63;;
75912;SDS011;64592;52.168;21.040;2022-12-07T14:38:46;9.98;;;5.43;;
75912;SDS011;64592;52.168;21.040;2022-12-07T14:43:49;14.77;;;7.22;;
75912;SDS011;64592;52.168;21.040;2022-12-07T14:48:51;13.63;;;6.97;;
75912;SDS011;64592;52.168;21.040;2022-12-07T14:53:53;9.77;;;5.60;;
75912;SDS011;64592;52.168;21.040;2022-12-07T14:58:56;13.15;;;7.03;;
75912;SDS011;64592;52.168;21.040;2022-12-07T15:03:58;14.05;;;9.07;;
75912;SDS011;64592;52.168;21.040;2022-12-07T15:09:00;10.75;;;5.82;;
75912;SDS011;64592;52.168;21.040;2022-12-07T15:14:03;14.90;;;8.02;;
75912;SDS011;64592;52.168;21.040;2022-12-07T15:19:12;15.10;;;8.30;;
75912;SDS011;64592;52.168;21.040;2022-12-07T15:24:15;18.92;;;9.05;;
75912;SDS011;64592;52.168;21.040;2022-12-07T15:29:18;17.92;;;8.35;;
75912;SDS011;64592;52.168;21.040;2022-12-07T15:34:20;20.92;;;8.95;;
75912;SDS011;64592;52.168;21.040;2022-12-07T15:39:21;15.68;;;8.15;;
75912;SDS011;64592;52.168;21.040;2022-12-07T15:44:24;13.18;;;7.95;;
75912;SDS011;64592;52.168;21.040;2022-12-07T15:49:55;17.00;;;8.10;;
75912;SDS011;64592;52.168;21.040;2022-12-07T15:54:56;12.02;;;6.13;;
75912;SDS011;64592;52.168;21.040;2022-12-07T16:00:01;17.75;;;8.85;;
75912;SDS011;64592;52.168;21.040;2022-12-07T16:05:03;11.13;;;6.03;;
75912;SDS011;64592;52.168;21.040;2022-12-07T16:10:06;15.57;;;8.63;;
75912;SDS011;64592;52.168;21.040;2022-12-07T16:15:10;16.50;;;8.95;;
75912;SDS011;64592;52.168;21.040;2022-12-07T16:20:11;15.45;;;7.43;;
75912;SDS011;64592;52.168;21.040;2022-12-07T16:25:13;17.85;;;9.55;;
75912;SDS011;64592;52.168;21.040;2022-12-07T16:30:16;15.77;;;7.13;;
75912;SDS011;64592;52.168;21.040;2022-12-07T16:35:18;15.88;;;7.85;;
75912;SDS011;64592;52.168;21.040;2022-12-07T16:40:20;13.02;;;7.88;;
75912;SDS011;64592;52.168;21.040;2022-12-07T16:45:23;17.05;;;8.48;;
75912;SDS011;64592;52.168;21.040;2022-12-07T16:50:24;15.98;;;9.13;;
75912;SDS011;64592;52.168;21.040;2022-12-07T16:55:26;12.57;;;8.07;;
75912;SDS011;64592;52.168;21.040;2022-12-07T17:00:29;15.30;;;7.93;;
75912;SDS011;64592;52.168;21.040;2022-12-07T17:05:31;15.85;;;8.43;;
75912;SDS011;64592;52.168;21.040;2022-12-07T17:10:33;13.82;;;9.30;;
75912;SDS011;64592;52.168;21.040;2022-12-07T17:15:37;20.45;;;10.27;;
75912;SDS011;64592;52.168;21.040;2022-12-07T17:20:39;16.25;;;7.97;;
75912;SDS011;64592;52.168;21.040;2022-12-07T17:25:40;14.52;;;7.18;;
75912;SDS011;64592;52.168;21.040;2022-12-07T17:30:43;16.67;;;8.50;;
75912;SDS011;64592;52.168;21.040;2022-12-07T17:35:45;20.27;;;7.93;;
75912;SDS011;64592;52.168;21.040;2022-12-07T17:40:47;12.77;;;7.20;;
75912;SDS011;64592;52.168;21.040;2022-12-07T17:45:50;17.90;;;7.90;;
75912;SDS011;64592;52.168;21.040;2022-12-07T17:50:52;17.17;;;9.57;;
75912;SDS011;64592;52.168;21.040;2022-12-07T17:56:11;16.02;;;8.25;;
75912;SDS011;64592;52.168;21.040;2022-12-07T18:01:15;14.88;;;7.55;;
75912;SDS011;64592;52.168;21.040;2022-12-07T18:06:16;10.10;;;6.40;;
75912;SDS011;64592;52.168;21.040;2022-12-07T18:11:18;12.00;;;7.68;;
75912;SDS011;64592;52.168;21.040;2022-12-07T18:16:22;12.60;;;7.50;;
75912;SDS011;64592;52.168;21.040;2022-12-07T18:21:26;14.05;;;7.78;;
75912;SDS011;64592;52.168;21.040;2022-12-07T18:26:30;13.93;;;6.70;;
75912;SDS011;64592;52.168;21.040;2022-12-07T18:31:36;12.02;;;6.55;;
75912;SDS011;64592;52.168;21.040;2022-12-07T18:36:37;11.20;;;5.70;;
75912;SDS011;64592;52.168;21.040;2022-12-07T18:41:41;13.48;;;6.43;;
75912;SDS011;64592;52.168;21.040;2022-12-07T18:46:44;14.13;;;7.93;;
75912;SDS011;64592;52.168;21.040;2022-12-07T18:51:47;9.55;;;5.28;;
75912;SDS011;64592;52.168;21.040;2022-12-07T18:56:48;12.13;;;6.53;;
75912;SDS011;64592;52.168;21.040;2022-12-07T19:01:52;11.68;;;6.30;;
75912;SDS011;64592;52.168;21.040;2022-12-07T19:06:54;14.82;;;7.32;;
75912;SDS011;64592;52.168;21.040;2022-12-07T19:11:56;13.55;;;7.32;;
75912;SDS011;64592;52.168;21.040;2022-12-07T19:17:03;10.40;;;6.32;;
75912;SDS011;64592;52.168;21.040;2022-12-07T19:22:06;11.73;;;6.63;;
75912;SDS011;64592;52.168;21.040;2022-12-07T19:27:09;12.75;;;8.05;;
75912;SDS011;64592;52.168;21.040;2022-12-07T19:32:12;11.55;;;7.47;;
75912;SDS011;64592;52.168;21.040;2022-12-07T19:37:15;13.07;;;5.90;;
75912;SDS011;64592;52.168;21.040;2022-12-07T19:42:17;11.32;;;5.85;;
75912;SDS011;64592;52.168;21.040;2022-12-07T19:47:20;11.93;;;7.07;;
75912;SDS011;64592;52.168;21.040;2022-12-07T19:52:22;10.88;;;5.38;;
75912;SDS011;64592;52.168;21.040;2022-12-07T19:57:25;6.78;;;4.15;;
75912;SDS011;64592;52.168;21.040;2022-12-07T20:02:28;9.48;;;5.05;;
75912;SDS011;64592;52.168;21.040;2022-12-07T20:07:30;8.30;;;4.07;;
75912;SDS011;64592;52.168;21.040;2022-12-07T20:12:36;7.18;;;4.22;;
75912;SDS011;64592;52.168;21.040;2022-12-07T20:17:56;7.30;;;3.60;;
75912;SDS011;64592;52.168;21.040;2022-12-07T20:22:58;6.63;;;3.58;;
75912;SDS011;64592;52.168;21.040;2022-12-07T20:28:00;7.43;;;4.80;;
75912;SDS011;64592;52.168;21.040;2022-12-07T20:33:03;4.45;;;2.75;;
75912;SDS011;64592;52.168;21.040;2022-12-07T20:38:04;6.90;;;4.80;;
75912;SDS011;64592;52.168;21.040;2022-12-07T20:43:06;5.93;;;3.10;;
75912;SDS011;64592;52.168;21.040;2022-12-07T20:48:10;14.45;;;4.53;;
75912;SDS011;64592;52.168;21.040;2022-12-07T20:53:11;7.63;;;3.50;;
75912;SDS011;64592;52.168;21.040;2022-12-07T20:58:13;9.10;;;4.47;;
75912;SDS011;64592;52.168;21.040;2022-12-07T21:03:16;7.05;;;3.47;;
75912;SDS011;64592;52.168;21.040;2022-12-07T21:08:18;3.42;;;2.60;;
75912;SDS011;64592;52.168;21.040;2022-12-07T21:13:19;5.50;;;3.58;;
75912;SDS011;64592;52.168;21.040;2022-12-07T21:18:22;9.90;;;5.13;;
75912;SDS011;64592;52.168;21.040;2022-12-07T21:23:24;5.07;;;3.08;;
75912;SDS011;64592;52.168;21.040;2022-12-07T21:28:26;7.75;;;3.78;;
75912;SDS011;64592;52.168;21.040;2022-12-07T21:33:29;6.35;;;3.30;;
75912;SDS011;64592;52.168;21.040;2022-12-07T21:38:31;4.47;;;3.17;;
75912;SDS011;64592;52.168;21.040;2022-12-07T21:43:33;9.20;;;4.30;;
75912;SDS011;64592;52.168;21.040;2022-12-07T21:48:36;5.35;;;3.13;;
75912;SDS011;64592;52.168;21.040;2022-12-07T21:53:38;4.18;;;2.92;;
75912;SDS011;64592;52.168;21.040;2022-12-07T21:58:42;6.90;;;3.78;;
75912;SDS011;64592;52.168;21.040;2022-12-07T22:03:46;10.43;;;4.18;;
75912;SDS011;64592;52.168;21.040;2022-12-07T22:08:47;4.90;;;4.40;;
75912;SDS011;64592;52.168;21.040;2022-12-07T22:13:49;3.03;;;2.33;;
75912;SDS011;64592;52.168;21.040;2022-12-07T22:19:10;7.93;;;2.85;;
75912;SDS011;64592;52.168;21.040;2022-12-07T22:24:11;6.45;;;3.60;;
75912;SDS011;64592;52.168;21.040;2022-12-07T22:29:14;2.85;;;2.00;;
75912;SDS011;64592;52.168;21.040;2022-12-07T22:34:17;4.07;;;2.80;;
75912;SDS011;64592;52.168;21.040;2022-12-07T22:39:19;4.18;;;3.33;;
75912;SDS011;64592;52.168;21.040;2022-12-07T22:44:20;4.45;;;3.00;;
75912;SDS011;64592;52.168;21.040;2022-12-07T22:49:23;6.88;;;3.15;;
75912;SDS011;64592;52.168;21.040;2022-12-07T22:54:25;8.95;;;3.63;;
75912;SDS011;64592;52.168;21.040;2022-12-07T22:59:26;7.45;;;3.60;;
75912;SDS011;64592;52.168;21.040;2022-12-07T23:04:30;7.75;;;4.10;;
75912;SDS011;64592;52.168;21.040;2022-12-07T23:09:31;5.75;;;3.45;;
75912;SDS011;64592;52.168;21.040;2022-12-07T23:14:34;5.13;;;3.28;;
75912;SDS011;64592;52.168;21.040;2022-12-07T23:19:38;8.85;;;4.15;;
75912;SDS011;64592;52.168;21.040;2022-12-07T23:24:40;8.15;;;3.35;;
75912;SDS011;64592;52.168;21.040;2022-12-07T23:29:41;6.03;;;3.20;;
75912;SDS011;64592;52.168;21.040;2022-12-07T23:34:44;7.45;;;3.80;;
75912;SDS011;64592;52.168;21.040;2022-12-07T23:39:46;9.65;;;3.38;;
75912;SDS011;64592;52.168;21.040;2022-12-07T23:44:48;7.63;;;3.05;;
75912;SDS011;64592;52.168;21.040;2022-12-07T23:49:51;4.53;;;2.75;;
75912;SDS011;64592;52.168;21.040;2022-12-07T23:54:52;3.25;;;2.28;;
75912;SDS011;64592;52.168;21.040;2022-12-07T23:59:54;4.10;;;2.15;;
